Terminal Aerodrome Forecast
Issued by NWS North Platte, NE

Home | Current Version | Previous Version | Graphics & Text | Print | Product List | Glossary On
Versions: 1 2 3 4 5 6 7 8 9 10 11 12 13 14
000
FTUS43 KLBF 120800 AAA
TAFVTN
TAF AMD
KVTN 120800Z 1208/1306 33007KT P6SM SCT035 OVC050
     FM121200 32005KT P6SM SCT030 BKN050
     FM121800 31005KT P6SM SCT060
     FM122100 28006KT P6SM SKC=

USA.gov is the U.S. government's official web portal to all federal, state and local government web resources and services.